Time;durP1;ratioP1;P1;durP2;ratioP2;P2;SDS_P1;SDS_P2;PMS_P1;PMS_P2;Temp;Humidity;BMP_temperature;BMP_pressure;BME280_temperature;BME280_humidity;BME280_pressure;Samples;Min_cycle;Max_cycle;Signal;HPM_P1;HPM_P2
2021/12/26 00:01:28;;;;;;;9.93;6.63;;;9.00;99.90;;;;;;5084911;28;20024;-73
2021/12/26 00:03:54;;;;;;;8.40;6.35;;;9.00;99.90;;;;;;5084542;28;20020;-74
2021/12/26 00:06:26;;;;;;;8.52;6.32;;;9.10;99.90;;;;;;5084590;28;20398;-73
2021/12/26 00:08:53;;;;;;;;;;;9.10;99.90;;;;;;5084235;28;20020;-72
2021/12/26 00:11:20;;;;;;;12.00;7.07;;;9.10;99.90;;;;;;5083690;28;20090;-72
2021/12/26 00:13:46;;;;;;;13.35;6.85;;;9.10;99.90;;;;;;5083212;28;20032;-73
2021/12/26 00:16:13;;;;;;;13.43;7.30;;;9.10;99.90;;;;;;5084744;28;20039;-73
2021/12/26 00:18:45;;;;;;;10.35;7.90;;;9.10;99.90;;;;;;5084768;28;20074;-74
2021/12/26 00:21:13;;;;;;;13.02;8.85;;;9.10;99.90;;;;;;5096893;28;20058;-73
2021/12/26 00:23:38;;;;;;;13.15;8.73;;;9.00;99.90;;;;;;5096555;28;20036;-75
2021/12/26 00:26:04;;;;;;;13.23;9.02;;;9.10;99.90;;;;;;5096452;28;20104;-74
2021/12/26 00:28:30;;;;;;;15.07;9.20;;;9.10;99.90;;;;;;5092253;28;20072;-73
2021/12/26 00:30:57;;;;;;;13.75;9.35;;;9.10;99.90;;;;;;5087491;28;20016;-74
2021/12/26 00:33:23;;;;;;;13.50;9.75;;;9.10;99.90;;;;;;5084267;28;20051;-73
2021/12/26 00:35:49;;;;;;;15.25;10.23;;;9.10;99.90;;;;;;5083270;28;20020;-74
2021/12/26 00:38:15;;;;;;;17.55;10.32;;;9.00;99.90;;;;;;5084151;28;20024;-74
2021/12/26 00:40:42;;;;;;;17.13;10.73;;;9.10;99.90;;;;;;5083325;28;20024;-74
2021/12/26 00:43:08;;;;;;;14.75;10.43;;;9.10;99.90;;;;;;5084082;28;20013;-73
2021/12/26 00:45:34;;;;;;;16.55;10.65;;;9.10;99.90;;;;;;5084133;28;20097;-74
2021/12/26 00:47:59;;;;;;;19.00;10.75;;;9.00;99.90;;;;;;5084046;28;20044;-74
2021/12/26 00:50:30;;;;;;;14.88;9.85;;;9.00;99.90;;;;;;5082789;28;20027;-73
2021/12/26 00:52:56;;;;;;;14.20;10.23;;;9.10;99.90;;;;;;5082563;28;20039;-74
2021/12/26 00:55:23;;;;;;;15.07;10.07;;;9.00;99.90;;;;;;5066485;28;20020;-73
2021/12/26 00:57:48;;;;;;;14.88;9.88;;;9.00;99.90;;;;;;5084094;28;20016;-73
2021/12/26 01:00:20;;;;;;;15.43;9.68;;;9.10;99.90;;;;;;5083692;28;20342;-72
2021/12/26 01:02:46;;;;;;;13.82;9.20;;;9.10;99.90;;;;;;5084038;28;20087;-74
2021/12/26 01:05:12;;;;;;;12.63;9.02;;;9.00;99.90;;;;;;5065218;28;20425;-75
2021/12/26 01:10:32;;;;;;;17.40;9.18;;;9.00;99.90;;;;;;5082960;28;20028;-72
2021/12/26 01:13:08;;;;;;;13.35;8.88;;;9.10;99.90;;;;;;5082867;28;20024;-73
2021/12/26 01:15:34;;;;;;;11.45;8.30;;;9.00;99.90;;;;;;5083716;28;20021;-72
2021/12/26 01:18:00;;;;;;;14.25;8.35;;;9.10;99.90;;;;;;5083872;28;20017;-73
2021/12/26 01:20:41;;;;;;;12.07;8.20;;;9.10;99.90;;;;;;5083871;28;20031;-73
2021/12/26 01:23:09;;;;;;;14.00;8.25;;;9.10;99.90;;;;;;5083751;28;20164;-73
2021/12/26 01:25:35;;;;;;;9.30;7.55;;;9.20;99.90;;;;;;5083775;28;20047;-74
2021/12/26 01:28:02;;;;;;;14.30;7.75;;;9.10;99.90;;;;;;5082806;28;20068;-73
2021/12/26 01:30:28;;;;;;;10.70;8.10;;;9.10;99.90;;;;;;5081734;28;20023;-72
2021/12/26 01:32:54;;;;;;;11.60;8.13;;;9.20;99.90;;;;;;5083372;28;20315;-72
2021/12/26 01:35:21;;;;;;;8.80;6.97;;;9.20;99.90;;;;;;5083655;28;20083;-73
2021/12/26 01:37:47;;;;;;;10.82;7.60;;;9.20;99.90;;;;;;5082516;28;20017;-74
2021/12/26 01:40:13;;;;;;;11.00;7.90;;;9.10;99.90;;;;;;5083735;28;20078;-72
2021/12/26 01:42:38;;;;;;;10.23;7.13;;;9.20;99.90;;;;;;5083679;28;20027;-73
2021/12/26 01:45:07;;;;;;;10.18;7.45;;;9.10;99.90;;;;;;5083401;28;20024;-74
2021/12/26 01:47:33;;;;;;;10.30;7.65;;;9.10;99.90;;;;;;5083562;28;20017;-73
2021/12/26 01:49:58;;;;;;;10.98;8.15;;;9.20;99.90;;;;;;5082590;28;20032;-73
2021/12/26 01:52:24;;;;;;;10.05;7.40;;;9.10;99.90;;;;;;5081670;28;20020;-73
2021/12/26 01:55:00;;;;;;;12.10;8.38;;;9.10;99.90;;;;;;5082398;28;20017;-73
2021/12/26 01:57:26;;;;;;;12.55;8.15;;;9.10;99.90;;;;;;5082621;28;20349;-73
2021/12/26 01:59:52;;;;;;;11.50;8.13;;;9.10;99.90;;;;;;5081998;28;20084;-73
2021/12/26 02:02:17;;;;;;;11.40;8.40;;;9.10;99.90;;;;;;5083498;28;20040;-73
2021/12/26 02:04:43;;;;;;;11.82;8.40;;;9.10;99.90;;;;;;5083278;28;20040;-73
2021/12/26 02:07:11;;;;;;;10.93;8.30;;;9.10;99.90;;;;;;5081978;28;20016;-74
2021/12/26 02:09:37;;;;;;;12.98;8.95;;;9.10;99.90;;;;;;5082243;28;20211;-73
2021/12/26 02:12:04;;;;;;;13.82;9.63;;;9.00;99.90;;;;;;5083464;28;20020;-73
2021/12/26 02:14:29;;;;;;;16.27;9.75;;;9.00;99.90;;;;;;5083066;28;20250;-73
2021/12/26 02:16:56;;;;;;;16.30;10.25;;;9.00;99.90;;;;;;5085115;28;20087;-72
2021/12/26 02:19:21;;;;;;;22.85;11.52;;;8.90;99.90;;;;;;5086899;28;20193;-73
2021/12/26 02:22:15;;;;;;;15.18;10.23;;;8.90;99.90;;;;;;5086796;28;20047;-73
2021/12/26 02:24:57;;;;;;;17.83;11.32;;;8.90;99.90;;;;;;5085853;28;20024;-72
2021/12/26 02:27:38;;;;;;;16.10;11.07;;;9.00;99.90;;;;;;5086003;28;20271;-72
2021/12/26 02:30:10;;;;;;;17.27;11.18;;;9.00;99.90;;;;;;5086247;28;20262;-73
2021/12/26 02:32:36;;;;;;;17.50;10.95;;;9.00;99.90;;;;;;5086687;28;20062;-73
2021/12/26 02:35:03;;;;;;;17.60;11.40;;;9.00;99.90;;;;;;5086369;28;20310;-72
2021/12/26 02:37:28;;;;;;;17.20;11.13;;;9.10;99.90;;;;;;5068809;28;20051;-73
2021/12/26 02:39:54;;;;;;;18.27;11.07;;;9.10;99.90;;;;;;5086504;28;20020;-72
2021/12/26 02:42:22;;;;;;;14.93;9.38;;;9.10;99.90;;;;;;5086369;28;20021;-74
2021/12/26 02:44:49;;;;;;;15.40;9.50;;;9.10;99.90;;;;;;5085408;28;20035;-73
2021/12/26 02:47:30;;;;;;;16.63;10.07;;;9.00;99.90;;;;;;5085131;28;20086;-72
2021/12/26 02:50:06;;;;;;;13.15;9.50;;;9.10;99.90;;;;;;5084995;28;20021;-72
2021/12/26 02:52:32;;;;;;;13.73;9.05;;;9.10;99.90;;;;;;5086338;28;20378;-72
2021/12/26 02:54:59;;;;;;;12.93;8.88;;;9.10;99.90;;;;;;5084246;28;20024;-73
2021/12/26 02:57:25;;;;;;;10.50;8.25;;;9.10;99.90;;;;;;5086102;28;20025;-73
2021/12/26 02:59:50;;;;;;;14.80;7.93;;;9.10;99.90;;;;;;5085798;28;20047;-73
2021/12/26 03:02:16;;;;;;;12.40;7.43;;;9.10;99.90;;;;;;5086177;28;20025;-73
2021/12/26 03:04:42;;;;;;;9.80;6.53;;;9.10;99.90;;;;;;5085975;28;20032;-73
2021/12/26 03:07:08;;;;;;;8.45;6.85;;;9.10;99.90;;;;;;5084390;28;20410;-73
2021/12/26 03:09:44;;;;;;;9.55;6.57;;;9.00;99.90;;;;;;5086089;28;20028;-71
2021/12/26 03:12:10;;;;;;;7.88;6.00;;;9.00;99.90;;;;;;5085991;28;20185;-73
2021/12/26 03:14:38;;;;;;;9.32;6.07;;;8.90;99.90;;;;;;5085949;28;20036;-72
2021/12/26 03:17:05;;;;;;;9.48;6.47;;;8.90;99.90;;;;;;5085696;28;20051;-72
2021/12/26 03:19:34;;;;;;;9.77;6.00;;;8.90;99.90;;;;;;5085755;28;20024;-73
2021/12/26 03:22:00;;;;;;;7.85;6.10;;;8.90;99.90;;;;;;5085651;28;20023;-72
2021/12/26 03:24:26;;;;;;;8.35;6.22;;;8.90;99.90;;;;;;5084717;28;20079;-73
2021/12/26 03:27:03;;;;;;;10.00;6.88;;;8.80;99.90;;;;;;5084667;28;20354;-72
2021/12/26 03:29:29;;;;;;;9.85;6.70;;;8.80;99.90;;;;;;5089596;28;20043;-73
2021/12/26 03:31:55;;;;;;;9.30;6.35;;;8.90;99.90;;;;;;5098889;28;20079;-73
2021/12/26 03:34:21;;;;;;;10.13;5.97;;;8.90;99.90;;;;;;5097323;28;20028;-74
2021/12/26 03:36:51;;;;;;;10.88;6.47;;;8.90;99.90;;;;;;5095855;28;20406;-73
2021/12/26 03:39:16;;;;;;;8.15;5.78;;;9.00;99.90;;;;;;5093131;28;20091;-72
2021/12/26 03:41:42;;;;;;;7.63;5.65;;;9.00;99.90;;;;;;5086667;28;20047;-72
2021/12/26 03:44:08;;;;;;;7.82;5.70;;;9.00;99.90;;;;;;5085362;28;20056;-73
2021/12/26 03:46:34;;;;;;;7.93;5.97;;;9.00;99.90;;;;;;5084894;28;20052;-73
2021/12/26 03:49:04;;;;;;;9.48;5.72;;;9.10;99.90;;;;;;5085029;28;20092;-72
2021/12/26 03:51:29;;;;;;;8.52;5.93;;;9.10;99.90;;;;;;5085318;28;20012;-72
2021/12/26 03:53:55;;;;;;;8.48;5.57;;;9.10;99.90;;;;;;5083179;28;20069;-73
2021/12/26 03:56:21;;;;;;;6.57;5.38;;;9.10;99.90;;;;;;5085014;28;20025;-72
2021/12/26 03:58:46;;;;;;;8.70;6.07;;;9.10;99.90;;;;;;5085104;28;20070;-73
2021/12/26 04:01:12;;;;;;;8.13;6.05;;;9.10;99.90;;;;;;5084530;28;20300;-73
2021/12/26 04:03:38;;;;;;;11.02;7.28;;;9.00;99.90;;;;;;5083882;28;20282;-73
2021/12/26 04:06:04;;;;;;;9.70;6.25;;;9.00;99.90;;;;;;5084731;28;20028;-74
2021/12/26 04:08:30;;;;;;;9.57;6.00;;;9.00;99.90;;;;;;5084603;28;20039;-72
2021/12/26 04:10:56;;;;;;;7.95;5.97;;;9.00;99.90;;;;;;5083280;28;20020;-74
2021/12/26 04:13:22;;;;;;;10.10;6.65;;;9.10;99.90;;;;;;5083687;28;20027;-73
2021/12/26 04:15:47;;;;;;;7.70;6.10;;;9.10;99.90;;;;;;5084706;28;20051;-73
2021/12/26 04:18:13;;;;;;;8.52;6.20;;;9.00;99.90;;;;;;5083440;28;20040;-72
2021/12/26 04:20:39;;;;;;;7.97;5.85;;;9.00;99.90;;;;;;5084400;28;20024;-74
2021/12/26 04:23:05;;;;;;;9.65;6.22;;;9.00;99.90;;;;;;5084348;28;20087;-73
2021/12/26 04:25:31;;;;;;;9.05;6.78;;;8.90;99.90;;;;;;5084475;28;20031;-73
2021/12/26 04:27:57;;;;;;;10.00;6.57;;;8.80;99.90;;;;;;5083884;28;20060;-72
2021/12/26 04:30:24;;;;;;;8.32;6.30;;;8.80;99.90;;;;;;5083760;28;20032;-73
2021/12/26 04:32:50;;;;;;;7.85;6.18;;;8.90;99.90;;;;;;5084370;28;20025;-72
2021/12/26 04:35:17;;;;;;;8.55;6.22;;;9.00;99.90;;;;;;5084518;28;20070;-73
2021/12/26 04:37:42;;;;;;;9.43;6.80;;;9.00;99.90;;;;;;5083122;28;20025;-73
2021/12/26 04:40:13;;;;;;;8.52;6.45;;;9.00;99.90;;;;;;5082740;28;20123;-73
2021/12/26 04:42:40;;;;;;;9.13;6.90;;;8.90;99.90;;;;;;5067047;28;20024;-73
2021/12/26 04:45:09;;;;;;;9.50;6.20;;;8.90;99.90;;;;;;5083056;28;20029;-72
2021/12/26 04:47:35;;;;;;;11.55;6.43;;;8.90;99.90;;;;;;5084012;28;20241;-72
2021/12/26 04:50:02;;;;;;;9.38;6.72;;;8.80;99.90;;;;;;5083388;28;20319;-73
2021/12/26 04:52:28;;;;;;;10.07;7.20;;;8.80;99.90;;;;;;5084287;28;20074;-73
2021/12/26 04:54:53;;;;;;;9.85;6.50;;;8.80;99.90;;;;;;5082709;28;20315;-73
2021/12/26 04:57:19;;;;;;;11.68;7.35;;;8.80;99.90;;;;;;5083797;28;20028;-72
2021/12/26 04:59:45;;;;;;;13.32;7.22;;;8.70;99.90;;;;;;5082708;28;20271;-74
2021/12/26 05:02:11;;;;;;;12.68;7.40;;;8.70;99.90;;;;;;5083077;28;20044;-73
2021/12/26 05:04:37;;;;;;;11.88;7.47;;;8.70;99.90;;;;;;5083728;28;20024;-72
2021/12/26 05:07:05;;;;;;;12.25;8.00;;;8.70;99.90;;;;;;5082796;28;20032;-73
2021/12/26 05:09:31;;;;;;;12.70;8.63;;;8.70;99.90;;;;;;5083735;28;20028;-72
2021/12/26 05:11:58;;;;;;;13.70;9.05;;;8.70;99.90;;;;;;5082784;28;20087;-72
2021/12/26 05:14:24;;;;;;;13.30;8.68;;;8.70;99.90;;;;;;5084114;28;20021;-72
2021/12/26 05:16:50;;;;;;;12.73;8.10;;;8.70;99.90;;;;;;5083862;28;20032;-72
2021/12/26 05:19:16;;;;;;;13.27;8.70;;;8.70;99.90;;;;;;5083432;28;20044;-73
2021/12/26 05:21:41;;;;;;;12.80;7.93;;;8.70;99.90;;;;;;5084013;28;20020;-72
2021/12/26 05:24:07;;;;;;;12.70;7.82;;;8.60;99.90;;;;;;5082817;28;20043;-72
2021/12/26 05:26:33;;;;;;;11.65;7.75;;;8.60;99.90;;;;;;5082749;28;20028;-72
2021/12/26 05:28:59;;;;;;;13.07;8.35;;;8.60;99.90;;;;;;5082399;28;20162;-72
2021/12/26 05:31:24;;;;;;;13.05;8.00;;;8.50;99.90;;;;;;5083718;28;20041;-73
2021/12/26 05:33:50;;;;;;;15.73;7.90;;;8.50;99.90;;;;;;5083713;28;20311;-72
2021/12/26 05:36:16;;;;;;;11.05;7.90;;;8.50;99.90;;;;;;5083753;28;20024;-72
2021/12/26 05:38:41;;;;;;;11.80;7.93;;;8.40;99.90;;;;;;5083295;28;20311;-72
2021/12/26 05:41:07;;;;;;;11.73;7.93;;;8.30;99.90;;;;;;5083588;28;20047;-72
2021/12/26 05:43:33;;;;;;;11.02;7.80;;;8.30;99.90;;;;;;5083845;28;20315;-72
2021/12/26 05:45:59;;;;;;;11.75;8.20;;;8.30;99.90;;;;;;5083431;28;20088;-72
2021/12/26 05:48:24;;;;;;;12.07;7.60;;;8.20;99.90;;;;;;5063419;28;20236;-72
2021/12/26 05:50:52;;;;;;;16.30;8.45;;;8.10;99.90;;;;;;5064613;28;20084;-73
2021/12/26 05:53:18;;;;;;;13.38;7.88;;;8.10;99.90;;;;;;5067552;28;20013;-73
2021/12/26 05:55:45;;;;;;;14.63;8.07;;;8.00;99.90;;;;;;5064564;28;20056;-72
2021/12/26 05:58:10;;;;;;;12.88;8.35;;;8.10;99.90;;;;;;5067386;28;20017;-72
2021/12/26 06:00:36;;;;;;;13.18;8.07;;;8.10;99.90;;;;;;5067173;28;20067;-72
2021/12/26 06:03:02;;;;;;;12.18;7.88;;;8.10;99.90;;;;;;5067191;28;20032;-73
2021/12/26 06:05:27;;;;;;;12.93;8.02;;;8.00;99.90;;;;;;5066816;28;20247;-72
2021/12/26 06:07:53;;;;;;;15.80;9.40;;;8.00;99.90;;;;;;5067241;28;20028;-72
2021/12/26 06:10:19;;;;;;;12.73;8.35;;;7.90;99.90;;;;;;5066763;28;20032;-72
2021/12/26 06:12:45;;;;;;;14.98;8.93;;;7.90;99.90;;;;;;5067124;28;20216;-72
2021/12/26 06:15:12;;;;;;;15.13;9.07;;;7.80;99.90;;;;;;5067029;28;20017;-71
2021/12/26 06:17:38;;;;;;;14.50;9.25;;;7.80;99.90;;;;;;5066881;28;20017;-73
2021/12/26 06:20:05;;;;;;;13.27;9.05;;;7.80;99.90;;;;;;5066561;28;20079;-73
2021/12/26 06:22:30;;;;;;;15.63;9.27;;;7.70;99.90;;;;;;5082441;28;20025;-72
2021/12/26 06:24:56;;;;;;;15.65;10.00;;;7.70;99.90;;;;;;5066838;28;20024;-72
2021/12/26 06:27:22;;;;;;;19.23;10.70;;;7.70;99.90;;;;;;5066687;28;20376;-72
2021/12/26 06:29:48;;;;;;;16.73;9.77;;;7.70;99.90;;;;;;5081545;28;20044;-73
2021/12/26 06:32:13;;;;;;;17.10;9.73;;;7.70;99.90;;;;;;5082237;28;20023;-72
2021/12/26 06:34:39;;;;;;;14.00;9.35;;;7.80;99.90;;;;;;5086635;28;20250;-72
2021/12/26 06:37:05;;;;;;;13.73;8.73;;;7.70;99.90;;;;;;5086857;28;20261;-72
2021/12/26 06:39:30;;;;;;;15.68;9.18;;;7.80;99.90;;;;;;5089063;28;20072;-70
2021/12/26 06:41:56;;;;;;;17.52;9.40;;;7.80;99.90;;;;;;5098564;28;20073;-73
2021/12/26 06:44:22;;;;;;;17.45;8.98;;;7.80;99.90;;;;;;5097687;28;20017;-71
2021/12/26 06:46:48;;;;;;;15.02;8.52;;;7.80;99.90;;;;;;5096593;28;20074;-73
2021/12/26 06:49:16;;;;;;;14.93;8.75;;;7.80;99.90;;;;;;5093768;28;20383;-72
2021/12/26 06:51:41;;;;;;;16.63;9.00;;;7.90;99.90;;;;;;5088072;28;20278;-72
2021/12/26 06:54:07;;;;;;;16.05;8.85;;;7.80;99.90;;;;;;5086529;28;20037;-72
2021/12/26 06:56:33;;;;;;;14.10;8.77;;;7.80;99.90;;;;;;5084878;28;20032;-72
2021/12/26 06:58:58;;;;;;;13.43;9.38;;;7.80;99.90;;;;;;5086101;28;20024;-73
2021/12/26 07:01:24;;;;;;;14.82;8.75;;;7.90;99.90;;;;;;5085695;28;20222;-71
2021/12/26 07:03:51;;;;;;;14.30;8.40;;;7.90;99.90;;;;;;5086099;28;20087;-72
2021/12/26 07:06:16;;;;;;;14.60;9.05;;;7.80;99.90;;;;;;5085980;28;20031;-72
2021/12/26 07:08:44;;;;;;;14.38;9.10;;;7.70;99.90;;;;;;5086079;28;20028;-72
2021/12/26 07:11:09;;;;;;;13.85;8.05;;;7.70;99.90;;;;;;5085877;28;20028;-72
2021/12/26 07:13:35;;;;;;;14.00;8.90;;;7.70;99.90;;;;;;5085951;28;20238;-71
2021/12/26 07:16:00;;;;;;;14.82;9.38;;;7.70;99.90;;;;;;5086056;28;20032;-72
2021/12/26 07:18:26;;;;;;;15.75;9.38;;;7.70;99.90;;;;;;5085779;28;20055;-72
2021/12/26 07:20:52;;;;;;;16.35;9.93;;;7.70;99.90;;;;;;5085695;28;20017;-72
2021/12/26 07:23:18;;;;;;;17.30;9.88;;;7.70;99.90;;;;;;5085899;28;20329;-71
2021/12/26 07:25:43;;;;;;;19.05;9.80;;;7.60;99.90;;;;;;5085719;28;20074;-71
2021/12/26 07:28:09;;;;;;;17.80;9.38;;;7.50;99.90;;;;;;5084331;28;20235;-72
2021/12/26 07:30:35;;;;;;;13.27;8.40;;;7.50;99.90;;;;;;5084908;28;20031;-72
2021/12/26 07:33:00;;;;;;;17.23;9.60;;;7.60;99.90;;;;;;5084406;28;20088;-72
2021/12/26 07:35:26;;;;;;;15.82;9.73;;;7.60;99.90;;;;;;5085401;28;20055;-71
2021/12/26 07:37:53;;;;;;;17.00;9.95;;;7.50;99.90;;;;;;5085489;28;20024;-72
2021/12/26 07:40:19;;;;;;;15.43;8.70;;;7.50;99.90;;;;;;5085282;28;20028;-73
2021/12/26 07:42:46;;;;;;;18.55;9.60;;;7.40;99.90;;;;;;5085318;28;20043;-72
2021/12/26 07:45:12;;;;;;;17.20;8.43;;;7.40;99.90;;;;;;5085211;28;20069;-71
2021/12/26 07:47:39;;;;;;;15.20;8.95;;;7.30;99.90;;;;;;5085330;28;20028;-71
2021/12/26 07:50:05;;;;;;;13.82;9.00;;;7.30;99.90;;;;;;5084703;28;20056;-72
2021/12/26 07:52:36;;;;;;;16.17;9.25;;;7.30;99.90;;;;;;5085228;28;20379;-72
2021/12/26 07:55:03;;;;;;;17.30;9.73;;;7.30;99.90;;;;;;5084850;28;20016;-71
2021/12/26 07:57:29;;;;;;;26.17;10.77;;;7.40;99.90;;;;;;5083765;28;20021;-71
2021/12/26 07:59:55;;;;;;;19.27;9.48;;;7.40;99.90;;;;;;5083620;28;20075;-73
2021/12/26 08:02:21;;;;;;;21.92;10.95;;;7.40;99.90;;;;;;5083617;28;20211;-72
2021/12/26 08:04:47;;;;;;;17.33;10.02;;;7.40;99.90;;;;;;5084716;28;20017;-71
2021/12/26 08:07:13;;;;;;;20.60;10.77;;;7.40;99.90;;;;;;5083958;28;20083;-73
2021/12/26 08:09:40;;;;;;;16.10;9.48;;;7.40;99.90;;;;;;5083621;28;20042;-72
2021/12/26 08:12:06;;;;;;;17.35;9.77;;;7.50;99.90;;;;;;5083667;28;20040;-73
2021/12/26 08:14:32;;;;;;;15.48;8.90;;;7.50;99.90;;;;;;5084367;28;20054;-72
2021/12/26 08:16:57;;;;;;;18.42;9.00;;;7.50;99.90;;;;;;5084737;28;20024;-72
2021/12/26 08:19:23;;;;;;;16.65;9.27;;;7.60;99.90;;;;;;5084514;28;20017;-73
2021/12/26 08:21:52;;;;;;;24.08;9.45;;;7.60;99.90;;;;;;5083064;28;20025;-72
2021/12/26 08:24:19;;;;;;;19.75;9.52;;;7.60;99.90;;;;;;5084571;28;20070;-73
2021/12/26 08:26:49;;;;;;;14.27;8.77;;;7.60;99.90;;;;;;5083549;28;20058;-72
2021/12/26 08:29:16;;;;;;;15.68;9.20;;;7.70;99.90;;;;;;5084006;28;20284;-71
2021/12/26 08:31:41;;;;;;;25.98;10.80;;;7.70;99.90;;;;;;5083019;28;20091;-72
2021/12/26 08:34:08;;;;;;;21.80;9.65;;;7.80;99.90;;;;;;5084360;28;20020;-72
2021/12/26 08:36:33;;;;;;;22.30;9.70;;;7.80;99.90;;;;;;5084494;28;20074;-72
2021/12/26 08:39:03;;;;;;;15.63;8.48;;;7.80;99.90;;;;;;5083214;28;20315;-74
2021/12/26 08:41:29;;;;;;;15.30;8.95;;;7.90;99.90;;;;;;5084228;28;20021;-73
2021/12/26 08:43:55;;;;;;;14.32;8.63;;;8.00;99.90;;;;;;5084333;28;20151;-72
2021/12/26 08:46:22;;;;;;;16.77;8.55;;;8.00;99.90;;;;;;5083907;28;20020;-73
2021/12/26 08:48:48;;;;;;;20.17;9.57;;;8.10;99.90;;;;;;5083060;28;20020;-73
2021/12/26 08:51:14;;;;;;;18.05;8.90;;;8.10;99.90;;;;;;5082821;28;20203;-72
2021/12/26 08:53:40;;;;;;;22.25;9.50;;;8.10;99.90;;;;;;5083037;28;20191;-72
2021/12/26 08:56:05;;;;;;;19.38;9.68;;;8.10;99.90;;;;;;5084185;28;20028;-72
2021/12/26 08:58:31;;;;;;;19.17;8.75;;;8.00;99.90;;;;;;5082488;28;20047;-73
2021/12/26 09:00:57;;;;;;;16.45;9.23;;;8.00;99.90;;;;;;5083565;28;20047;-72
2021/12/26 09:03:22;;;;;;;17.77;9.02;;;8.00;99.90;;;;;;5082840;28;20265;-72
2021/12/26 09:05:48;;;;;;;16.27;9.20;;;8.00;99.90;;;;;;5083819;28;20089;-72
2021/12/26 09:08:14;;;;;;;18.85;9.20;;;8.00;99.90;;;;;;5082698;28;20016;-72
2021/12/26 09:10:42;;;;;;;18.80;9.70;;;8.00;99.90;;;;;;5083707;28;20078;-73
2021/12/26 09:13:08;;;;;;;14.93;8.93;;;8.10;99.90;;;;;;5083581;28;20219;-73
2021/12/26 09:15:34;;;;;;;13.60;8.18;;;8.20;99.90;;;;;;5084053;28;20031;-73
2021/12/26 09:18:01;;;;;;;18.95;9.40;;;8.20;99.90;;;;;;5083775;28;20024;-73
2021/12/26 09:20:27;;;;;;;16.23;9.35;;;8.20;99.90;;;;;;5082858;28;20024;-73
2021/12/26 09:22:53;;;;;;;17.38;9.18;;;8.20;99.90;;;;;;5083730;28;20016;-73
2021/12/26 09:25:19;;;;;;;18.38;10.38;;;8.20;99.90;;;;;;5084513;28;20028;-73
2021/12/26 09:27:45;;;;;;;18.85;9.60;;;8.30;99.90;;;;;;5087803;28;20230;-72
2021/12/26 09:30:12;;;;;;;18.38;8.95;;;8.30;99.90;;;;;;5086294;28;20032;-74
2021/12/26 09:32:38;;;;;;;26.75;10.10;;;8.40;99.90;;;;;;5086508;28;20044;-73
2021/12/26 09:35:05;;;;;;;14.95;8.48;;;8.40;99.90;;;;;;5087739;28;20357;-73
2021/12/26 09:37:31;;;;;;;15.98;9.05;;;8.50;99.90;;;;;;5087936;28;20056;-71
2021/12/26 09:39:57;;;;;;;13.18;8.77;;;8.50;99.90;;;;;;5086700;28;20024;-72
2021/12/26 09:42:24;;;;;;;17.55;9.38;;;8.60;99.90;;;;;;5086462;28;20353;-73
2021/12/26 09:44:50;;;;;;;20.27;9.38;;;8.60;99.90;;;;;;5087642;28;20022;-72
2021/12/26 09:47:16;;;;;;;16.02;9.73;;;8.70;99.90;;;;;;5086610;28;20091;-73
2021/12/26 09:49:42;;;;;;;16.05;9.35;;;8.80;99.90;;;;;;5088472;28;20028;-72
2021/12/26 09:52:08;;;;;;;18.42;9.77;;;8.80;99.90;;;;;;5096421;28;20016;-73
2021/12/26 09:54:34;;;;;;;17.55;10.00;;;8.90;99.90;;;;;;5094893;28;20102;-71
2021/12/26 09:57:01;;;;;;;20.95;10.38;;;8.90;99.90;;;;;;5094060;28;20020;-73
2021/12/26 09:59:27;;;;;;;18.92;10.95;;;8.90;99.90;;;;;;5088929;28;20020;-73
2021/12/26 10:01:56;;;;;;;18.52;10.10;;;8.90;99.90;;;;;;5089908;28;20035;-74
2021/12/26 10:04:26;;;;;;;22.05;9.95;;;9.00;99.90;;;;;;5087856;28;20047;-72
2021/12/26 10:07:09;;;;;;;19.75;10.73;;;9.00;99.90;;;;;;5069915;28;20193;-73
2021/12/26 10:09:37;;;;;;;19.17;10.93;;;9.00;99.90;;;;;;5086018;28;20013;-73
2021/12/26 10:12:04;;;;;;;23.08;11.80;;;9.00;99.90;;;;;;5085888;28;20017;-72
2021/12/26 10:14:33;;;;;;;23.20;11.10;;;9.10;99.90;;;;;;5086817;28;20262;-72
2021/12/26 10:17:03;;;;;;;19.63;11.27;;;9.10;99.90;;;;;;5069436;28;20054;-72
2021/12/26 10:19:37;;;;;;;23.25;11.52;;;9.20;99.90;;;;;;5068994;28;20066;-72
2021/12/26 10:22:04;;;;;;;19.65;11.85;;;9.30;99.90;;;;;;5085917;28;20261;-72
2021/12/26 10:24:37;;;;;;;23.73;11.98;;;9.30;99.90;;;;;;5069068;28;20311;-72
2021/12/26 10:27:07;;;;;;;21.67;12.65;;;9.30;99.90;;;;;;5085681;28;20070;-73
2021/12/26 10:29:38;;;;;;;23.48;11.75;;;9.40;99.90;;;;;;5085062;28;20048;-73
2021/12/26 10:32:37;;;;;;;20.38;11.95;;;9.40;99.90;;;;;;5085288;28;20040;-72
2021/12/26 10:35:09;;;;;;;22.85;11.15;;;9.40;99.90;;;;;;5085355;28;20130;-73
2021/12/26 10:37:38;;;;;;;18.67;10.90;;;9.50;99.90;;;;;;5086330;28;20033;-73
2021/12/26 10:40:11;;;;;;;20.25;11.38;;;9.60;99.90;;;;;;5086518;28;20260;-74
2021/12/26 10:42:39;;;;;;;22.80;11.70;;;9.60;99.90;;;;;;5085486;28;20020;-72
2021/12/26 10:45:08;;;;;;;17.80;11.02;;;9.80;99.90;;;;;;5085222;28;20024;-72
2021/12/26 10:47:36;;;;;;;26.42;13.23;;;9.80;99.90;;;;;;5086153;28;20088;-73
2021/12/26 10:50:13;;;;;;;21.13;12.23;;;9.80;99.90;;;;;;5086398;28;20118;-72
2021/12/26 10:52:41;;;;;;;24.25;12.32;;;9.80;99.90;;;;;;5085301;28;20021;-72
2021/12/26 10:55:12;;;;;;;17.80;11.35;;;9.90;99.90;;;;;;5085054;28;20017;-72
2021/12/26 10:57:54;;;;;;;22.15;11.68;;;9.90;99.90;;;;;;5086428;28;20027;-73
2021/12/26 11:00:27;;;;;;;;;;;10.00;99.90;;;;;;5066647;28;20024;-73
2021/12/26 11:03:06;;;;;;;24.60;11.88;;;10.10;99.90;;;;;;5084992;28;19931;-72
2021/12/26 11:05:35;;;;;;;23.77;12.15;;;10.10;99.90;;;;;;5085997;28;20032;-72
2021/12/26 11:08:05;;;;;;;22.02;12.75;;;10.20;99.90;;;;;;5085001;28;20204;-72
2021/12/26 11:10:43;;;;;;;19.65;11.38;;;10.30;99.90;;;;;;5084974;28;20321;-72
2021/12/26 11:13:21;;;;;;;24.92;11.63;;;10.40;99.90;;;;;;5085174;28;20027;-74
2021/12/26 11:15:47;;;;;;;24.42;12.55;;;10.40;99.90;;;;;;5084651;28;20099;-73
2021/12/26 11:18:16;;;;;;;21.00;11.98;;;10.50;99.90;;;;;;5085604;28;20371;-74
2021/12/26 11:20:46;;;;;;;23.02;12.73;;;10.60;99.90;;;;;;5085824;28;20054;-73
2021/12/26 11:23:17;;;;;;;27.13;13.15;;;10.70;99.90;;;;;;5085856;28;20088;-72
2021/12/26 11:25:46;;;;;;;23.73;13.57;;;10.70;99.90;;;;;;5084601;28;20028;-73
2021/12/26 11:28:13;;;;;;;24.08;12.05;;;10.80;99.90;;;;;;5084339;28;20053;-73
2021/12/26 11:30:41;;;;;;;22.48;11.70;;;10.90;99.90;;;;;;5083926;28;20024;-73
2021/12/26 11:33:08;;;;;;;18.58;11.60;;;11.00;99.90;;;;;;5085485;28;20320;-73
2021/12/26 11:35:37;;;;;;;17.40;11.10;;;11.10;99.90;;;;;;5085167;28;20020;-72
2021/12/26 11:38:03;;;;;;;21.02;11.98;;;11.30;99.90;;;;;;5084500;28;20036;-73
2021/12/26 11:40:31;;;;;;;20.92;10.68;;;11.40;99.90;;;;;;5085504;28;20031;-72
2021/12/26 11:43:24;;;;;;;17.92;10.60;;;11.60;99.90;;;;;;5085455;28;20061;-73
2021/12/26 11:46:13;;;;;;;19.15;9.98;;;11.70;99.90;;;;;;5084171;28;20032;-73
2021/12/26 11:49:11;;;;;;;18.60;10.13;;;11.90;99.90;;;;;;5063285;28;20032;-73
2021/12/26 11:51:52;;;;;;;12.35;6.65;;;11.90;99.90;;;;;;5076533;28;20088;-73
2021/12/26 11:54:46;;;;;;;14.55;6.72;;;11.80;99.90;;;;;;5080712;28;20016;-73
2021/12/26 11:57:51;;;;;;;12.60;6.30;;;11.70;99.90;;;;;;5077027;28;20082;-72
2021/12/26 12:00:38;;;;;;;13.48;6.07;;;11.70;99.90;;;;;;5074817;28;20013;-73
2021/12/26 12:03:06;;;;;;;18.15;6.75;;;11.60;99.90;;;;;;5077940;28;20052;-72
2021/12/26 12:05:40;;;;;;;12.73;6.50;;;11.60;99.90;;;;;;5064734;28;20096;-72
2021/12/26 12:08:09;;;;;;;14.73;6.43;;;11.60;99.90;;;;;;5080125;28;20021;-73
2021/12/26 12:10:57;;;;;;;18.45;6.35;;;11.60;99.90;;;;;;5080187;28;20045;-73
2021/12/26 12:13:45;;;;;;;19.77;5.65;;;11.50;99.90;;;;;;5080172;28;20052;-72
2021/12/26 12:16:27;;;;;;;11.98;4.60;;;11.70;99.90;;;;;;5077375;28;20032;-73
2021/12/26 12:18:55;;;;;;;;;;;11.70;99.90;;;;;;5065192;28;20084;-73
2021/12/26 12:21:35;;;;;;;10.38;4.80;;;11.70;99.90;;;;;;5080189;28;19901;-74
2021/12/26 12:24:25;;;;;;;14.82;5.15;;;11.60;99.90;;;;;;5064716;28;20025;-73
2021/12/26 12:26:58;;;;;;;12.77;5.05;;;11.40;99.90;;;;;;5077231;28;20055;-74
2021/12/26 12:29:46;;;;;;;11.10;4.22;;;11.30;99.90;;;;;;5064057;28;20052;-73
2021/12/26 12:32:15;;;;;;;11.93;3.28;;;11.20;99.90;;;;;;5083410;28;20042;-73
2021/12/26 12:34:54;;;;;;;10.13;2.20;;;11.10;99.90;;;;;;5084259;28;20024;-73
2021/12/26 12:37:45;;;;;;;9.50;2.15;;;11.00;99.90;;;;;;5083350;28;20044;-72
2021/12/26 12:40:30;;;;;;;11.55;2.72;;;10.90;99.90;;;;;;5070133;28;20025;-74
2021/12/26 12:43:16;;;;;;;12.27;3.20;;;10.90;99.90;;;;;;5083017;28;20066;-72
2021/12/26 12:46:05;;;;;;;10.88;2.75;;;10.90;99.90;;;;;;5083074;28;20095;-73
2021/12/26 12:48:38;;;;;;;6.68;1.88;;;10.90;99.90;;;;;;5064063;28;20017;-73
2021/12/26 12:51:31;;;;;;;8.60;1.77;;;10.90;99.90;;;;;;5064208;28;20029;-73
2021/12/26 12:54:00;;;;;;;7.70;1.85;;;11.00;99.90;;;;;;5063037;28;20021;-73
2021/12/26 12:56:44;;;;;;;5.80;1.73;;;10.90;99.90;;;;;;5079570;28;20021;-74